Time;durP1;ratioP1;P1;durP2;ratioP2;P2;SDS_P1;SDS_P2;PMS_P1;PMS_P2;Temp;Humidity;BMP_temperature;BMP_pressure;BME280_temperature;BME280_humidity;BME280_pressure;Samples;Min_cycle;Max_cycle;Signal;HPM_P1;HPM_P2
2022/10/14 00:00:59;;;;;;;;;;;11.10;99.90;;;;;;5099016;28;19908;-75
2022/10/14 00:03:25;;;;;;;;;;;11.00;99.90;;;;;;5099086;28;20012;-76
2022/10/14 00:05:51;;;;;;;;;;;11.00;99.90;;;;;;5099267;28;19966;-77
2022/10/14 00:08:16;;;;;;;;;;;11.00;99.90;;;;;;5098420;28;20629;-75
2022/10/14 00:10:42;;;;;;;;;;;11.10;99.90;;;;;;5095712;28;20017;-75
2022/10/14 00:13:07;;;;;;;;;;;11.00;99.90;;;;;;5094032;28;19915;-75
2022/10/14 00:15:37;;;;;;;;;;;11.00;99.90;;;;;;5095703;28;19931;-75
2022/10/14 00:18:03;;;;;;;;;;;11.10;99.90;;;;;;5095259;28;20011;-76
2022/10/14 00:20:28;;;;;;;;;;;11.10;99.90;;;;;;5095874;28;19998;-75
2022/10/14 00:22:54;;;;;;;;;;;11.00;99.90;;;;;;5095958;28;19908;-75
2022/10/14 00:25:19;;;;;;;;;;;11.00;99.90;;;;;;5095104;28;19908;-77
2022/10/14 00:27:45;;;;;;;;;;;10.90;99.90;;;;;;5095694;28;19962;-76
2022/10/14 00:30:11;;;;;;;;;;;11.00;99.90;;;;;;5093177;28;19915;-75
2022/10/14 00:32:36;;;;;;;;;;;10.90;99.90;;;;;;5094290;28;20376;-76
2022/10/14 00:35:02;;;;;;;;;;;10.90;99.90;;;;;;5094108;28;19916;-75
2022/10/14 00:37:27;;;;;;;;;;;10.90;99.90;;;;;;5095497;28;19994;-75
2022/10/14 00:39:53;;;;;;;;;;;11.00;99.90;;;;;;5094911;28;19922;-75
2022/10/14 00:42:19;;;;;;;;;;;11.00;99.90;;;;;;5094702;28;19904;-75
2022/10/14 00:44:44;;;;;;;;;;;11.00;99.90;;;;;;5093324;28;19924;-74
2022/10/14 00:47:10;;;;;;;;;;;11.00;99.90;;;;;;5094321;28;19916;-76
2022/10/14 00:49:37;;;;;;;;;;;10.90;99.90;;;;;;5095376;28;19916;-75
2022/10/14 00:52:06;;;;;;;;;;;10.90;99.90;;;;;;5093478;28;19908;-76
2022/10/14 00:54:40;;;;;;;;;;;10.80;99.90;;;;;;5095013;28;19955;-76
2022/10/14 00:57:06;;;;;;;;;;;10.90;99.90;;;;;;5094662;28;19927;-75
2022/10/14 00:59:32;;;;;;;;;;;10.90;99.90;;;;;;5094489;28;19908;-76
2022/10/14 01:01:58;;;;;;;;;;;10.90;99.90;;;;;;5094487;28;19916;-75
2022/10/14 01:04:24;;;;;;;;;;;10.90;99.90;;;;;;5094253;28;19908;-75
2022/10/14 01:07:08;;;;;;;;;;;11.00;99.90;;;;;;5094984;28;20012;-76
2022/10/14 01:09:54;;;;;;;;;;;11.00;99.90;;;;;;5094531;28;20017;-75
2022/10/14 01:12:24;;;;;;;;;;;11.00;99.90;;;;;;5072744;28;19912;-77
2022/10/14 01:14:58;;;;;;;;;;;10.90;99.90;;;;;;5094732;28;19912;-75
2022/10/14 01:17:37;;;;;;;;;;;10.90;99.90;;;;;;5094104;28;19912;-75
2022/10/14 01:20:15;;;;;;;;;;;10.90;99.90;;;;;;5093961;28;19943;-76
2022/10/14 01:22:45;;;;;;;;;;;10.80;99.90;;;;;;5094542;28;19908;-76
2022/10/14 01:25:23;;;;;;;;;;;10.80;99.90;;;;;;5092921;28;20330;-76
2022/10/14 01:28:07;;;;;;;;;;;11.00;99.90;;;;;;5094540;28;20381;-76
2022/10/14 01:30:52;;;;;;;;;;;10.90;99.90;;;;;;5094529;28;19957;-76
2022/10/14 01:33:21;;;;;;;;;;;10.80;99.90;;;;;;5086243;28;19998;-76
2022/10/14 01:36:07;;;;;;;;;;;10.80;99.90;;;;;;5094267;28;20452;-75
2022/10/14 01:38:51;;;;;;;;;;;10.90;99.90;;;;;;5094309;28;19959;-75
2022/10/14 01:41:26;;;;;;;;;;;10.90;99.90;;;;;;5093594;28;19908;-75
2022/10/14 01:43:54;;;;;;;;;;;10.90;99.90;;;;;;5093760;28;19967;-75
2022/10/14 01:46:20;;;;;;;;;;;10.80;99.90;;;;;;5093182;28;19997;-75
2022/10/14 01:48:49;;;;;;;;;;;10.90;99.90;;;;;;5093974;28;20346;-76
2022/10/14 01:51:17;;;;;;;;;;;11.00;99.90;;;;;;5093408;28;20381;-75
2022/10/14 01:53:48;;;;;;;;;;;11.00;99.90;;;;;;5094027;28;20006;-74
2022/10/14 01:56:16;;;;;;;;;;;10.90;99.90;;;;;;5093603;28;19951;-75
2022/10/14 01:58:42;;;;;;;;;;;10.90;99.90;;;;;;5095898;28;19951;-76
2022/10/14 02:01:07;;;;;;;;;;;11.00;99.90;;;;;;5095193;28;19912;-77
2022/10/14 02:03:37;;;;;;;;;;;11.00;99.90;;;;;;5094817;28;19915;-76
2022/10/14 02:06:05;;;;;;;;;;;10.90;99.90;;;;;;5094679;28;19912;-76
2022/10/14 02:08:40;;;;;;;;;;;10.90;99.90;;;;;;5094946;28;19915;-76
2022/10/14 02:11:16;;;;;;;;;;;11.00;99.90;;;;;;5094504;28;20394;-76
2022/10/14 02:13:48;;;;;;;;;;;10.90;99.90;;;;;;5094628;28;19934;-77
2022/10/14 02:16:28;;;;;;;;;;;10.90;99.90;;;;;;5093181;28;19966;-76
2022/10/14 02:19:06;;;;;;;;;;;11.00;99.90;;;;;;5093562;28;19912;-76
2022/10/14 02:21:44;;;;;;;;;;;10.90;99.90;;;;;;5093361;28;19926;-76
2022/10/14 02:24:13;;;;;;;;;;;10.90;99.90;;;;;;5092705;28;20003;-76
2022/10/14 02:26:39;;;;;;;;;;;10.90;99.90;;;;;;5093254;28;20365;-76
2022/10/14 02:29:05;;;;;;;;;;;10.90;99.90;;;;;;5093054;28;19916;-76
2022/10/14 02:31:31;;;;;;;;;;;10.90;99.90;;;;;;5093414;28;19916;-76
2022/10/14 02:33:59;;;;;;;;;;;10.90;99.90;;;;;;5092747;28;20331;-76
2022/10/14 02:36:26;;;;;;;;;;;10.90;99.90;;;;;;5091520;28;20360;-76
2022/10/14 02:38:52;;;;;;;;;;;10.90;99.90;;;;;;5093237;28;19915;-75
2022/10/14 02:41:19;;;;;;;;;;;10.90;99.90;;;;;;5092346;28;19908;-76
2022/10/14 02:43:45;;;;;;;;;;;10.80;99.90;;;;;;5092899;28;20417;-75
2022/10/14 02:46:11;;;;;;;;;;;10.90;99.90;;;;;;5092731;28;19912;-76
2022/10/14 02:48:36;;;;;;;;;;;10.80;99.90;;;;;;5093135;28;19908;-75
2022/10/14 02:51:02;;;;;;;;;;;10.80;99.90;;;;;;5093142;28;19964;-76
2022/10/14 02:53:27;;;;;;;;;;;10.90;99.90;;;;;;5092598;28;20482;-75
2022/10/14 02:55:53;;;;;;;;;;;10.90;99.90;;;;;;5093102;28;20274;-75
2022/10/14 02:58:18;;;;;;;;;;;10.80;99.90;;;;;;5092552;28;19912;-76
2022/10/14 03:00:44;;;;;;;;;;;10.70;99.90;;;;;;5091716;28;19915;-75
2022/10/14 03:03:10;;;;;;;;;;;10.80;99.90;;;;;;5092442;28;19958;-75
2022/10/14 03:05:35;;;;;;;;;;;10.80;99.90;;;;;;5093047;28;20394;-76
2022/10/14 03:08:01;;;;;;;;;;;10.80;99.90;;;;;;5093271;28;19974;-76
2022/10/14 03:10:26;;;;;;;;;;;10.80;99.90;;;;;;5092269;28;19908;-76
2022/10/14 03:12:52;;;;;;;;;;;10.80;99.90;;;;;;5092494;28;19912;-76
2022/10/14 03:15:17;;;;;;;;;;;10.80;99.90;;;;;;5092373;28;19962;-76
2022/10/14 03:17:43;;;;;;;;;;;10.70;99.90;;;;;;5092922;28;19912;-76
2022/10/14 03:20:09;;;;;;;;;;;10.70;99.90;;;;;;5092750;28;19908;-75
2022/10/14 03:22:35;;;;;;;;;;;10.80;99.90;;;;;;5092480;28;20369;-75
2022/10/14 03:25:01;;;;;;;;;;;10.70;99.90;;;;;;5092880;28;19913;-76
2022/10/14 03:27:26;;;;;;;;;;;10.70;99.90;;;;;;5092322;28;19908;-77
2022/10/14 03:29:52;;;;;;;;;;;10.70;99.90;;;;;;5092571;28;19919;-76
2022/10/14 03:32:18;;;;;;;;;;;10.70;99.90;;;;;;5091003;28;19929;-76
2022/10/14 03:34:43;;;;;;;;;;;10.70;99.90;;;;;;5092873;28;20486;-76
2022/10/14 03:37:09;;;;;;;;;;;10.70;99.90;;;;;;5092714;28;19939;-77
2022/10/14 03:39:34;;;;;;;;;;;10.70;99.90;;;;;;5092271;28;19908;-76
2022/10/14 03:42:00;;;;;;;;;;;10.80;99.90;;;;;;5092585;28;20273;-76
2022/10/14 03:44:25;;;;;;;;;;;10.80;99.90;;;;;;5091864;28;19920;-75
2022/10/14 03:46:51;;;;;;;;;;;10.80;99.90;;;;;;5096059;28;19908;-75
2022/10/14 03:49:16;;;;;;;;;;;10.70;99.90;;;;;;5095826;28;19915;-75
2022/10/14 03:51:42;;;;;;;;;;;10.70;99.90;;;;;;5096808;28;19919;-75
2022/10/14 03:54:08;;;;;;;;;;;10.70;99.90;;;;;;5096092;28;19913;-76
2022/10/14 03:56:33;;;;;;;;;;;10.70;99.90;;;;;;5095447;28;19925;-75
2022/10/14 03:58:59;;;;;;;;;;;10.70;99.90;;;;;;5096311;28;19909;-76
2022/10/14 04:01:24;;;;;;;;;;;10.60;99.90;;;;;;5095731;28;20002;-76
2022/10/14 04:03:50;;;;;;;;;;;10.70;99.90;;;;;;5096178;28;19908;-75
2022/10/14 04:06:16;;;;;;;;;;;10.60;99.90;;;;;;5095694;28;19999;-75
2022/10/14 04:08:42;;;;;;;;;;;10.70;99.90;;;;;;5094812;28;20379;-75
2022/10/14 04:11:08;;;;;;;;;;;10.70;99.90;;;;;;5096013;28;19993;-75
2022/10/14 04:13:33;;;;;;;;;;;10.70;99.90;;;;;;5094009;28;19904;-76
2022/10/14 04:16:03;;;;;;;;;;;10.70;99.90;;;;;;5095922;28;19936;-76
2022/10/14 04:18:28;;;;;;;;;;;10.70;99.90;;;;;;5095208;28;20007;-76
2022/10/14 04:20:54;;;;;;;;;;;10.70;99.90;;;;;;5095925;28;19951;-76
2022/10/14 04:23:19;;;;;;;;;;;10.80;99.90;;;;;;5095584;28;19908;-76
2022/10/14 04:25:45;;;;;;;;;;;10.70;99.90;;;;;;5095530;28;19987;-77
2022/10/14 04:28:11;;;;;;;;;;;10.70;99.90;;;;;;5095775;28;20402;-77
2022/10/14 04:30:36;;;;;;;;;;;10.80;99.90;;;;;;5094897;28;19930;-77
2022/10/14 04:33:02;;;;;;;;;;;10.80;99.90;;;;;;5095370;28;19919;-77
2022/10/14 04:35:27;;;;;;;;;;;10.80;99.90;;;;;;5094957;28;19912;-76
2022/10/14 04:37:53;;;;;;;;;;;10.80;99.90;;;;;;5095587;28;20358;-76
2022/10/14 04:40:21;;;;;;;;;;;10.80;99.90;;;;;;5094972;28;19995;-76
2022/10/14 04:42:46;;;;;;;;;;;10.80;99.90;;;;;;5095440;28;19908;-77
2022/10/14 04:45:12;;;;;;;;;;;11.00;99.90;;;;;;5095081;28;20369;-76
2022/10/14 04:47:40;;;;;;;;;;;11.10;99.90;;;;;;5094188;28;20460;-75
2022/10/14 04:50:06;;;;;;;;;;;11.10;99.90;;;;;;5094804;28;20316;-75
2022/10/14 04:52:31;;;;;;;;;;;11.10;99.90;;;;;;5094496;28;19996;-75
2022/10/14 04:54:57;;;;;;;;;;;11.20;99.90;;;;;;5094889;28;19919;-76
2022/10/14 04:57:22;;;;;;;;;;;11.30;99.90;;;;;;5093837;28;20272;-76
2022/10/14 04:59:48;;;;;;;;;;;11.30;99.90;;;;;;5095064;28;19908;-76
2022/10/14 05:02:13;;;;;;;;;;;11.40;99.90;;;;;;5095079;28;19999;-76
2022/10/14 05:04:39;;;;;;;;;;;11.50;99.90;;;;;;5094249;28;19950;-76
2022/10/14 05:07:05;;;;;;;;;;;11.50;99.90;;;;;;5093416;28;20008;-77
2022/10/14 05:09:30;;;;;;;;;;;11.60;99.90;;;;;;5094322;28;19908;-75
2022/10/14 05:11:56;;;;;;;;;;;11.60;99.90;;;;;;5094725;28;20373;-75
2022/10/14 05:14:21;;;;;;;;;;;11.60;99.90;;;;;;5094148;28;19920;-75
2022/10/14 05:16:47;;;;;;;;;;;11.70;99.90;;;;;;5094637;28;19935;-75
2022/10/14 05:19:12;;;;;;;;;;;11.60;99.90;;;;;;5094829;28;20357;-75
2022/10/14 05:21:38;;;;;;;;;;;11.70;99.90;;;;;;5093765;28;20284;-76
2022/10/14 05:24:03;;;;;;;;;;;11.60;99.90;;;;;;5094364;28;19931;-75
2022/10/14 05:26:30;;;;;;;;;;;11.80;99.90;;;;;;5092183;28;19908;-76
2022/10/14 05:28:55;;;;;;;;;;;11.80;99.90;;;;;;5094427;28;20372;-75
2022/10/14 05:31:21;;;;;;;;;;;11.80;99.90;;;;;;5093516;28;19908;-75
2022/10/14 05:33:46;;;;;;;;;;;11.90;99.90;;;;;;5094084;28;19908;-77
2022/10/14 05:36:12;;;;;;;;;;;11.90;99.90;;;;;;5094136;28;19926;-76
2022/10/14 05:38:38;;;;;;;;;;;12.00;99.90;;;;;;5093304;28;19908;-76
2022/10/14 05:41:03;;;;;;;;;;;11.90;99.90;;;;;;5093748;28;19908;-75
2022/10/14 05:43:29;;;;;;;;;;;12.10;99.90;;;;;;5093880;28;19908;-75
2022/10/14 05:45:55;;;;;;;;;;;12.10;99.90;;;;;;5092554;28;20016;-75
2022/10/14 05:48:20;;;;;;;;;;;12.00;99.90;;;;;;5093737;28;19919;-76
2022/10/14 05:50:46;;;;;;;;;;;12.10;99.90;;;;;;5094160;28;19909;-75
2022/10/14 05:53:11;;;;;;;;;;;12.00;99.90;;;;;;5094046;28;19908;-77
2022/10/14 05:55:37;;;;;;;;;;;12.10;99.90;;;;;;5093469;28;20357;-77
2022/10/14 05:58:03;;;;;;;;;;;12.00;99.90;;;;;;5094045;28;20392;-75
2022/10/14 06:00:29;;;;;;;;;;;12.00;99.90;;;;;;5093355;28;19908;-76
2022/10/14 06:02:56;;;;;;;;;;;12.00;99.90;;;;;;5093779;28;20353;-76
2022/10/14 06:05:21;;;;;;;;;;;12.00;99.90;;;;;;5094137;28;19915;-76
2022/10/14 06:07:47;;;;;;;;;;;12.00;99.90;;;;;;5091825;28;19908;-76
2022/10/14 06:10:12;;;;;;;;;;;12.10;99.90;;;;;;5092566;28;20368;-76
2022/10/14 06:12:38;;;;;;;;;;;12.10;99.90;;;;;;5093733;28;19914;-76
2022/10/14 06:15:04;;;;;;;;;;;12.00;99.90;;;;;;5095032;28;19912;-76
2022/10/14 06:17:29;;;;;;;;;;;12.00;99.90;;;;;;5091892;28;20343;-76
2022/10/14 06:19:55;;;;;;;;;;;12.00;99.90;;;;;;5093537;28;19908;-76
2022/10/14 06:22:20;;;;;;;;;;;12.00;99.90;;;;;;5093233;28;20345;-76
2022/10/14 06:24:46;;;;;;;;;;;12.00;99.90;;;;;;5092891;28;19908;-75
2022/10/14 06:27:11;;;;;;;;;;;12.00;99.90;;;;;;5093316;28;20437;-75
2022/10/14 06:29:37;;;;;;;;;;;12.00;99.90;;;;;;5092398;28;19915;-76
2022/10/14 06:32:04;;;;;;;;;;;11.90;99.90;;;;;;5093120;28;19908;-75
2022/10/14 06:34:30;;;;;;;;;;;12.00;99.90;;;;;;5092956;28;20008;-76
2022/10/14 06:36:55;;;;;;;;;;;11.90;99.90;;;;;;5093150;28;19948;-77
2022/10/14 06:39:21;;;;;;;;;;;12.00;99.90;;;;;;5093244;28;19914;-76
2022/10/14 06:41:47;;;;;;;;;;;12.00;99.90;;;;;;5092648;28;20349;-75
2022/10/14 06:44:14;;;;;;;;;;;11.90;99.90;;;;;;5091557;28;20010;-75
2022/10/14 06:46:40;;;;;;;;;;;11.90;99.90;;;;;;5092416;28;19914;-76
2022/10/14 06:49:06;;;;;;;;;;;11.90;99.90;;;;;;5093130;28;19912;-76
2022/10/14 06:51:31;;;;;;;;;;;12.00;99.90;;;;;;5092062;28;19908;-75
2022/10/14 06:53:57;;;;;;;;;;;12.00;99.90;;;;;;5092873;28;19908;-76
2022/10/14 06:56:22;;;;;;;;;;;11.90;99.90;;;;;;5092768;28;19927;-76
2022/10/14 06:58:52;;;;;;;;;;;11.90;99.90;;;;;;5092370;28;20261;-75
2022/10/14 07:01:17;;;;;;;;;;;12.00;99.90;;;;;;5092456;28;20003;-77
2022/10/14 07:03:43;;;;;;;;;;;11.90;99.90;;;;;;5092911;28;19951;-76
2022/10/14 07:06:08;;;;;;;;;;;12.00;99.90;;;;;;5092886;28;19908;-77
2022/10/14 07:08:34;;;;;;;;;;;11.90;99.90;;;;;;5092318;28;20398;-74
2022/10/14 07:11:00;;;;;;;;;;;11.90;99.90;;;;;;5092810;28;19909;-78
2022/10/14 07:13:26;;;;;;;;;;;11.90;99.90;;;;;;5091239;28;20005;-75
2022/10/14 07:15:51;;;;;;;;;;;12.00;99.90;;;;;;5092399;28;20353;-75
2022/10/14 07:18:17;;;;;;;;;;;11.90;99.90;;;;;;5092482;28;20023;-76
2022/10/14 07:20:44;;;;;;;;;;;11.80;99.90;;;;;;5095191;28;20000;-75
2022/10/14 07:23:10;;;;;;;;;;;11.90;99.90;;;;;;5096730;28;19961;-75
2022/10/14 07:25:36;;;;;;;;;;;11.80;99.90;;;;;;5095975;28;19909;-76
2022/10/14 07:28:01;;;;;;;;;;;11.70;99.90;;;;;;5096336;28;19912;-76
2022/10/14 07:30:27;;;;;;;;;;;11.80;99.90;;;;;;5096550;28;19908;-75
2022/10/14 07:32:52;;;;;;;;;;;11.70;99.90;;;;;;5096303;28;19919;-75
2022/10/14 07:35:18;;;;;;;;;;;11.70;99.90;;;;;;5096461;28;19912;-75
2022/10/14 07:37:44;;;;;;;;;;;11.70;99.90;;;;;;5094711;28;19916;-75
2022/10/14 07:40:10;;;;;;;;;;;11.60;99.90;;;;;;5097071;28;19958;-76
2022/10/14 07:42:35;;;;;;;;;;;11.50;99.90;;;;;;5094798;28;19908;-76
2022/10/14 07:45:01;;;;;;;;;;;11.60;99.90;;;;;;5096177;28;20296;-75
2022/10/14 07:47:27;;;;;;;;;;;11.60;99.90;;;;;;5096175;28;19908;-73
2022/10/14 07:49:52;;;;;;;;;;;11.50;99.90;;;;;;5096366;28;20414;-74
2022/10/14 07:52:18;;;;;;;;;;;11.50;99.90;;;;;;5096206;28;19909;-76
2022/10/14 07:54:44;;;;;;;;;;;11.50;99.90;;;;;;5094373;28;19954;-75
2022/10/14 07:57:10;;;;;;;;;;;11.40;99.90;;;;;;5096076;28;20244;-75
2022/10/14 07:59:35;;;;;;;;;;;11.50;99.90;;;;;;5095298;28;19908;-75
2022/10/14 08:02:02;;;;;;;;;;;11.50;99.90;;;;;;5096115;28;19915;-74
2022/10/14 08:04:28;;;;;;;;;;;11.40;99.90;;;;;;5096195;28;20024;-75
2022/10/14 08:06:53;;;;;;;;;;;11.40;99.90;;;;;;5095940;28;19921;-74
2022/10/14 08:09:19;;;;;;;;;;;11.40;99.90;;;;;;5095751;28;19908;-74
2022/10/14 08:11:45;;;;;;;;;;;11.30;99.90;;;;;;5094795;28;20341;-74
2022/10/14 08:14:10;;;;;;;;;;;11.50;99.90;;;;;;5095937;28;19915;-74
2022/10/14 08:16:36;;;;;;;;;;;11.40;99.90;;;;;;5093971;28;19912;-74
2022/10/14 08:19:05;;;;;;;;;;;11.50;99.90;;;;;;5095785;28;19961;-74
2022/10/14 08:21:31;;;;;;;;;;;11.50;99.90;;;;;;5095245;28;19930;-74
2022/10/14 08:23:57;;;;;;;;;;;11.50;99.90;;;;;;5095249;28;20424;-74
2022/10/14 08:26:26;;;;;;;;;;;11.70;99.90;;;;;;5095569;28;19912;-74
2022/10/14 08:28:52;;;;;;;;;;;11.70;99.90;;;;;;5094178;28;20395;-75
2022/10/14 08:31:18;;;;;;;;;;;11.80;99.90;;;;;;5094456;28;19909;-75
2022/10/14 08:33:43;;;;;;;;;;;12.10;99.90;;;;;;5094958;28;19915;-75
2022/10/14 08:36:09;;;;;;;;;;;12.10;99.90;;;;;;5095504;28;20398;-76
2022/10/14 08:38:35;;;;;;;;;;;12.20;99.90;;;;;;5093612;28;20246;-75
2022/10/14 08:41:07;;;;;;;;;;;12.30;99.90;;;;;;5095426;28;19908;-74
2022/10/14 08:43:35;;;;;;;;;;;12.50;99.90;;;;;;5094583;28;19912;-74
2022/10/14 08:46:23;;;;;;;;;;;12.70;99.90;;;;;;5095496;28;20002;-74
2022/10/14 08:48:50;;;;;;;;;;;12.70;99.90;;;;;;5088598;28;19948;-74
2022/10/14 08:51:16;;;;;;;;;;;12.90;99.90;;;;;;5094954;28;19916;-74
2022/10/14 08:53:48;;;;;;;;;;;12.90;99.90;;;;;;5094118;28;19926;-74
2022/10/14 08:56:14;;;;;;;;;;;13.10;99.90;;;;;;5095177;28;19918;-75
2022/10/14 08:58:39;;;;;;;;;;;13.10;99.90;;;;;;5093233;28;19912;-74
2022/10/14 09:01:14;;;;;;;;;;;13.00;99.90;;;;;;5094831;28;19918;-75
2022/10/14 09:03:40;;;;;;;;;;;13.00;99.90;;;;;;5094087;28;19951;-75
2022/10/14 09:06:10;;;;;;;;;;;13.00;99.90;;;;;;5094894;28;19951;-75
2022/10/14 09:08:39;;;;;;;;;;;13.00;99.90;;;;;;5094242;28;19954;-74
2022/10/14 09:11:08;;;;;;;;;;;13.00;99.90;;;;;;5094924;28;19955;-74
2022/10/14 09:13:35;;;;;;;;;;;13.00;99.90;;;;;;5094721;28;20341;-76
2022/10/14 09:16:20;;;;;;;;;;;13.00;99.90;;;;;;5094758;28;19958;-75
2022/10/14 09:18:55;;;;;;;;;;;12.90;99.90;;;;;;5093958;28;19955;-74
2022/10/14 09:21:33;;;;;;;;;;;12.90;99.90;;;;;;5094545;28;19908;-75
2022/10/14 09:24:09;;;;;;;;;;;13.00;99.90;;;;;;5093725;28;19990;-75
2022/10/14 09:26:39;;;;;;;;;;;13.00;99.90;;;;;;5094432;28;19915;-75
2022/10/14 09:29:13;;;;;;;;;;;13.00;99.90;;;;;;5094471;28;19912;-74
2022/10/14 09:31:39;;;;;;;;;;;13.10;99.90;;;;;;5093872;28;19908;-74
2022/10/14 09:34:05;;;;;;;;;;;13.10;99.90;;;;;;5094212;28;20331;-75
2022/10/14 09:36:31;;;;;;;;;;;13.10;99.90;;;;;;5094388;28;19912;-74
2022/10/14 09:38:56;;;;;;;;;;;13.20;99.90;;;;;;5092334;28;19911;-75
2022/10/14 09:41:25;;;;;;;;;;;13.30;99.90;;;;;;5094172;28;19919;-74
2022/10/14 09:44:09;;;;;;;;;;;13.30;99.90;;;;;;5093371;28;19915;-73
2022/10/14 09:46:34;;;;;;;;;;;13.30;99.90;;;;;;5094115;28;19912;-74
2022/10/14 09:49:01;;;;;;;;;;;13.30;99.90;;;;;;5093302;28;19973;-74
2022/10/14 09:51:31;;;;;;;;;;;13.40;99.90;;;;;;5092822;28;19908;-74
2022/10/14 09:53:58;;;;;;;;;;;13.40;99.90;;;;;;5093181;28;19908;-74
2022/10/14 09:56:33;;;;;;;;;;;13.50;99.90;;;;;;5093836;28;19916;-75
2022/10/14 09:59:00;;;;;;;;;;;13.50;99.90;;;;;;5093318;28;19915;-75
2022/10/14 10:01:27;;;;;;;;;;;13.50;99.90;;;;;;5093842;28;19911;-75
2022/10/14 10:03:53;;;;;;;;;;;13.60;99.90;;;;;;5091986;28;19919;-75
2022/10/14 10:06:22;;;;;;;;;;;13.70;99.90;;;;;;5093831;28;19908;-75
2022/10/14 10:09:00;;;;;;;;;;;13.80;99.90;;;;;;5093166;28;19908;-75
2022/10/14 10:11:36;;;;;;;;;;;13.80;99.90;;;;;;5093693;28;19915;-74
2022/10/14 10:14:20;;;;;;;;;;;13.80;99.90;;;;;;5093292;28;19908;-74
2022/10/14 10:16:46;;;;;;;;;;;13.90;99.90;;;;;;5092732;28;19913;-75
2022/10/14 10:19:31;;;;;;;;;;;14.00;99.90;;;;;;5093298;28;19961;-75
2022/10/14 10:22:21;;;;;;;;;;;14.00;99.90;;;;;;5092748;28;19908;-75
2022/10/14 10:24:47;;;;;;;;;;;14.10;99.90;;;;;;5092685;28;19908;-75
2022/10/14 10:27:19;;;;;;;;;;;14.00;99.90;;;;;;5093537;28;19915;-75
2022/10/14 10:29:45;;;;;;;;;;;13.90;99.90;;;;;;5092566;28;19908;-75
2022/10/14 10:32:29;;;;;;;;;;;13.80;99.90;;;;;;5092945;28;19916;-74
2022/10/14 10:34:58;;;;;;;;;;;13.80;99.90;;;;;;5092521;28;19919;-75
2022/10/14 10:37:27;;;;;;;;;;;13.70;99.90;;;;;;5092827;28;19912;-74
2022/10/14 10:40:07;;;;;;;;;;;13.60;99.90;;;;;;5092412;28;20269;-74
2022/10/14 10:42:34;;;;;;;;;;;13.60;99.90;;;;;;5092964;28;20353;-74
2022/10/14 10:45:00;;;;;;;;;;;13.50;99.90;;;;;;5092211;28;20481;-74
2022/10/14 10:47:30;;;;;;;;;;;13.60;99.90;;;;;;5091409;28;19912;-76
2022/10/14 10:50:03;;;;;;;;;;;13.70;99.90;;;;;;5092020;28;20364;-73
2022/10/14 10:52:48;;;;;;;;;;;13.80;99.90;;;;;;5091796;28;19916;-75
2022/10/14 10:55:34;;;;;;;;;;;13.90;99.90;;;;;;5092301;28;19912;-75
2022/10/14 10:58:15;;;;;;;;;;;14.00;99.90;;;;;;5092084;28;19912;-75
2022/10/14 11:00:47;;;;;;;;;;;14.10;99.90;;;;;;5092196;28;19915;-74
2022/10/14 11:03:38;;;;;;;;;;;14.10;99.90;;;;;;5092857;28;19966;-74
2022/10/14 11:06:04;;;;;;;;;;;14.10;99.90;;;;;;5068273;28;19916;-75
2022/10/14 11:14:14;;;;;;;;;;;14.00;99.90;;;;;;5092428;28;19931;-76
2022/10/14 11:16:46;;;;;;;;;;;14.00;99.90;;;;;;5092720;28;20003;-76
2022/10/14 11:19:21;;;;;;;;;;;13.90;99.90;;;;;;5092682;28;19915;-74
2022/10/14 11:21:55;;;;;;;;;;;13.90;99.90;;;;;;5091859;28;19908;-75
2022/10/14 11:24:23;;;;;;;;;;;13.90;99.90;;;;;;5092401;28;19990;-75
2022/10/14 11:26:52;;;;;;;;;;;13.90;99.90;;;;;;5092159;28;20246;-75
2022/10/14 11:29:34;;;;;;;;;;;13.80;99.90;;;;;;5092695;28;19931;-74
2022/10/14 11:32:14;;;;;;;;;;;13.90;99.90;;;;;;5092034;28;19915;-74
2022/10/14 11:34:50;;;;;;;;;;;13.90;99.90;;;;;;5092218;28;19912;-74
2022/10/14 11:37:19;;;;;;;;;;;13.90;99.90;;;;;;5092434;28;19920;-74
2022/10/14 11:39:44;;;;;;;;;;;14.00;99.90;;;;;;5092111;28;19909;-75
2022/10/14 11:42:23;;;;;;;;;;;13.90;99.90;;;;;;5092394;28;20332;-75
2022/10/14 11:44:52;;;;;;;;;;;14.00;99.90;;;;;;5091922;28;19973;-75
2022/10/14 11:47:21;;;;;;;;;;;14.00;99.90;;;;;;5090917;28;19912;-75
2022/10/14 11:49:46;;;;;;;;;;;14.00;99.90;;;;;;5090527;28;19995;-75
2022/10/14 11:52:18;;;;;;;;;;;14.00;99.90;;;;;;5092159;28;19954;-75
2022/10/14 11:54:57;;;;;;;;;;;14.00;99.90;;;;;;5092240;28;19956;-75
2022/10/14 11:57:32;;;;;;;;;;;13.90;99.90;;;;;;5092244;28;19916;-75
2022/10/14 12:00:00;;;;;;;;;;;13.90;99.90;;;;;;5091585;28;19963;-73
2022/10/14 12:02:34;;;;;;;;;;;13.80;99.90;;;;;;5091952;28;19908;-74
2022/10/14 12:05:09;;;;;;;;;;;13.90;99.90;;;;;;5091474;28;19915;-74
2022/10/14 12:08:00;;;;;;;;;;;13.80;99.90;;;;;;5095043;28;19943;-74
2022/10/14 12:10:46;;;;;;;;;;;13.90;99.90;;;;;;5093256;28;19915;-74
2022/10/14 12:13:18;;;;;;;;;;;13.90;99.90;;;;;;5095289;28;20424;-74
2022/10/14 12:15:53;;;;;;;;;;;13.90;99.90;;;;;;5095512;28;19951;-75
2022/10/14 12:18:18;;;;;;;;;;;14.00;99.90;;;;;;5095959;28;19912;-74
2022/10/14 12:21:02;;;;;;;;;;;14.10;99.90;;;;;;5095014;28;19919;-73
2022/10/14 12:23:42;;;;;;;;;;;14.10;99.90;;;;;;5095837;28;20002;-74
2022/10/14 12:26:14;;;;;;;;;;;14.10;99.90;;;;;;5095188;28;19904;-74
2022/10/14 12:28:40;;;;;;;;;;;14.10;99.90;;;;;;5095714;28;20010;-74
2022/10/14 12:31:25;;;;;;;;;;;14.20;99.90;;;;;;5093599;28;19970;-74
2022/10/14 12:34:23;;;;;;;;;;;14.30;99.90;;;;;;5093734;28;20338;-74
2022/10/14 12:36:49;;;;;;;;;;;14.20;99.90;;;;;;5071292;28;20323;-74
2022/10/14 12:39:17;;;;;;;;;;;14.30;99.90;;;;;;5094934;28;20025;-75
2022/10/14 12:42:01;;;;;;;;;;;14.30;99.90;;;;;;5093999;28;19912;-74
2022/10/14 12:44:31;;;;;;;;;;;14.30;99.90;;;;;;5094675;28;19924;-74
2022/10/14 12:46:57;;;;;;;;;;;14.30;99.90;;;;;;5094818;28;19912;-75
2022/10/14 12:49:28;;;;;;;;;;;14.30;99.90;;;;;;5095531;28;20315;-74
2022/10/14 12:51:54;;;;;;;;;;;14.30;99.90;;;;;;5094500;28;19908;-74
2022/10/14 12:54:20;;;;;;;;;;;14.20;99.90;;;;;;5094944;28;19908;-74
2022/10/14 12:56:57;;;;;;;;;;;14.10;99.90;;;;;;5094901;28;19972;-74
2022/10/14 12:59:28;;;;;;;;;;;14.20;99.90;;;;;;5095380;28;20006;-74
2022/10/14 13:01:59;;;;;;;;;;;14.30;99.90;;;;;;5094713;28;19908;-75
2022/10/14 13:04:25;;;;;;;;;;;14.30;99.90;;;;;;5094391;28;19953;-74
2022/10/14 13:07:19;;;;;;;;;;;14.40;99.90;;;;;;5094088;28;19908;-74
2022/10/14 13:09:45;;;;;;;;;;;14.50;99.90;;;;;;5084402;28;20004;-74
2022/10/14 13:12:34;;;;;;;;;;;14.50;99.90;;;;;;5094103;28;19954;-75
2022/10/14 13:15:01;;;;;;;;;;;14.50;99.90;;;;;;5087667;28;19911;-75
2022/10/14 13:17:27;;;;;;;;;;;14.50;99.90;;;;;;5094480;28;19919;-73
2022/10/14 13:19:52;;;;;;;;;;;14.50;99.90;;;;;;5094260;28;19912;-74
2022/10/14 13:22:27;;;;;;;;;;;14.50;99.90;;;;;;5094670;28;19908;-75
2022/10/14 13:25:01;;;;;;;;;;;14.50;99.90;;;;;;5094055;28;19912;-75
2022/10/14 13:27:39;;;;;;;;;;;14.30;99.90;;;;;;5094697;28;20388;-75
2022/10/14 13:30:05;;;;;;;;;;;14.30;99.90;;;;;;5093933;28;19912;-75
2022/10/14 13:32:30;;;;;;;;;;;14.30;99.90;;;;;;5094450;28;19998;-75
2022/10/14 13:35:00;;;;;;;;;;;14.20;99.90;;;;;;5093468;28;19912;-74
2022/10/14 13:37:26;;;;;;;;;;;14.20;99.90;;;;;;5094333;28;19932;-75
2022/10/14 13:39:52;;;;;;;;;;;14.20;99.90;;;;;;5093726;28;19919;-76
2022/10/14 13:42:23;;;;;;;;;;;14.20;99.90;;;;;;5093700;28;19909;-75
2022/10/14 13:44:49;;;;;;;;;;;14.20;99.90;;;;;;5094560;28;20404;-76
2022/10/14 13:47:16;;;;;;;;;;;14.30;99.90;;;;;;5093358;28;20004;-75
2022/10/14 13:49:42;;;;;;;;;;;14.30;99.90;;;;;;5094349;28;19908;-74
2022/10/14 13:52:15;;;;;;;;;;;14.30;99.90;;;;;;5093541;28;19908;-74
2022/10/14 13:54:40;;;;;;;;;;;14.30;99.90;;;;;;5093719;28;19962;-75
2022/10/14 13:57:09;;;;;;;;;;;14.30;99.90;;;;;;5092872;28;19912;-74
2022/10/14 13:59:35;;;;;;;;;;;14.30;99.90;;;;;;5093919;28;20027;-75
2022/10/14 14:02:01;;;;;;;;;;;14.40;99.90;;;;;;5092979;28;19915;-74
2022/10/14 14:04:29;;;;;;;;;;;14.50;99.90;;;;;;5093844;28;19908;-75
2022/10/14 14:06:55;;;;;;;;;;;14.50;99.90;;;;;;5093642;28;19915;-75
2022/10/14 14:09:23;;;;;;;;;;;14.50;99.90;;;;;;5093734;28;19908;-74
2022/10/14 14:11:50;;;;;;;;;;;14.50;99.90;;;;;;5093599;28;19908;-75
2022/10/14 14:14:20;;;;;;;;;;;14.50;99.90;;;;;;5092977;28;19904;-75
2022/10/14 14:16:49;;;;;;;;;;;14.40;99.90;;;;;;5093457;28;19912;-75
2022/10/14 14:19:23;;;;;;;;;;;14.30;99.90;;;;;;5093259;28;19912;-74
2022/10/14 14:21:48;;;;;;;;;;;14.30;99.90;;;;;;5093483;28;19931;-74
2022/10/14 14:24:18;;;;;;;;;;;14.30;99.90;;;;;;5092976;28;20385;-75
2022/10/14 14:26:43;;;;;;;;;;;14.30;99.90;;;;;;5093173;28;20357;-74
2022/10/14 14:29:13;;;;;;;;;;;14.40;99.90;;;;;;5091778;28;19908;-74
2022/10/14 14:31:39;;;;;;;;;;;14.40;99.90;;;;;;5093739;28;19961;-75